sensor_id;sensor_type;location;lat;lon;timestamp;pressure;altitude;pressure_sealevel;temperature;humidity
74524;BME280;63074;44.696;10.358;2022-11-15T00:00:51;100487.84;;;7.98;100.00
74524;BME280;63074;44.696;10.358;2022-11-15T00:03:19;100491.16;;;8.06;100.00
74524;BME280;63074;44.696;10.358;2022-11-15T00:05:46;100494.66;;;8.07;100.00
74524;BME280;63074;44.696;10.358;2022-11-15T00:08:12;100488.69;;;7.92;100.00
74524;BME280;63074;44.696;10.358;2022-11-15T00:10:39;100494.81;;;8.12;100.00
74524;BME280;63074;44.696;10.358;2022-11-15T00:13:12;100488.25;;;8.08;100.00
74524;BME280;63074;44.696;10.358;2022-11-15T00:15:39;100482.28;;;7.86;100.00
74524;BME280;63074;44.696;10.358;2022-11-15T00:18:16;100482.53;;;7.78;100.00
74524;BME280;63074;44.696;10.358;2022-11-15T00:20:43;100488.25;;;7.82;100.00
74524;BME280;63074;44.696;10.358;2022-11-15T00:23:09;100486.41;;;7.82;100.00
74524;BME280;63074;44.696;10.358;2022-11-15T00:25:36;100480.25;;;7.95;100.00
74524;BME280;63074;44.696;10.358;2022-11-15T00:28:02;100480.44;;;7.80;100.00
74524;BME280;63074;44.696;10.358;2022-11-15T00:30:29;100480.47;;;7.73;100.00
74524;BME280;63074;44.696;10.358;2022-11-15T00:32:55;100466.69;;;7.76;100.00
74524;BME280;63074;44.696;10.358;2022-11-15T00:35:22;100471.41;;;7.68;100.00
74524;BME280;63074;44.696;10.358;2022-11-15T00:37:48;100476.34;;;7.64;100.00
74524;BME280;63074;44.696;10.358;2022-11-15T00:40:15;100475.94;;;7.67;100.00
74524;BME280;63074;44.696;10.358;2022-11-15T00:42:41;100474.28;;;7.66;100.00
74524;BME280;63074;44.696;10.358;2022-11-15T00:45:08;100475.53;;;7.64;100.00
74524;BME280;63074;44.696;10.358;2022-11-15T00:47:34;100481.28;;;7.67;100.00
74524;BME280;63074;44.696;10.358;2022-11-15T00:50:00;100480.06;;;7.70;100.00
74524;BME280;63074;44.696;10.358;2022-11-15T00:52:27;100478.19;;;7.70;100.00
74524;BME280;63074;44.696;10.358;2022-11-15T00:54:53;100490.34;;;7.73;100.00
74524;BME280;63074;44.696;10.358;2022-11-15T00:57:19;100476.16;;;7.79;100.00
74524;BME280;63074;44.696;10.358;2022-11-15T00:59:45;100468.09;;;7.59;100.00
74524;BME280;63074;44.696;10.358;2022-11-15T01:02:11;100464.81;;;7.64;100.00
74524;BME280;63074;44.696;10.358;2022-11-15T01:04:37;100463.19;;;7.63;100.00
74524;BME280;63074;44.696;10.358;2022-11-15T01:07:03;100464.41;;;7.60;100.00
74524;BME280;63074;44.696;10.358;2022-11-15T01:09:30;100462.56;;;7.61;100.00
74524;BME280;63074;44.696;10.358;2022-11-15T01:11:56;100461.53;;;7.68;100.00
74524;BME280;63074;44.696;10.358;2022-11-15T01:14:22;100462.78;;;7.79;100.00
74524;BME280;63074;44.696;10.358;2022-11-15T01:16:48;100450.41;;;7.65;100.00
74524;BME280;63074;44.696;10.358;2022-11-15T01:19:14;100453.72;;;7.60;100.00
74524;BME280;63074;44.696;10.358;2022-11-15T01:21:40;100455.34;;;7.55;100.00
74524;BME280;63074;44.696;10.358;2022-11-15T01:24:07;100452.88;;;7.60;100.00
74524;BME280;63074;44.696;10.358;2022-11-15T01:26:34;100449.19;;;7.48;100.00
74524;BME280;63074;44.696;10.358;2022-11-15T01:29:00;100447.13;;;7.43;100.00
74524;BME280;63074;44.696;10.358;2022-11-15T01:31:26;100439.72;;;7.45;100.00
74524;BME280;63074;44.696;10.358;2022-11-15T01:33:52;100439.50;;;7.33;100.00
74524;BME280;63074;44.696;10.358;2022-11-15T01:36:20;100448.78;;;7.37;100.00
74524;BME280;63074;44.696;10.358;2022-11-15T01:38:57;100442.41;;;7.38;100.00
74524;BME280;63074;44.696;10.358;2022-11-15T01:41:26;100435.63;;;7.49;100.00
74524;BME280;63074;44.696;10.358;2022-11-15T01:43:55;100429.63;;;7.60;100.00
74524;BME280;63074;44.696;10.358;2022-11-15T01:46:27;100428.41;;;7.76;100.00
74524;BME280;63074;44.696;10.358;2022-11-15T01:48:57;100419.34;;;7.77;100.00
74524;BME280;63074;44.696;10.358;2022-11-15T01:51:26;100416.88;;;7.56;100.00
74524;BME280;63074;44.696;10.358;2022-11-15T01:53:57;100409.88;;;7.68;100.00
74524;BME280;63074;44.696;10.358;2022-11-15T01:56:27;100415.03;;;7.69;100.00
74524;BME280;63074;44.696;10.358;2022-11-15T01:58:56;100415.03;;;7.56;100.00
74524;BME280;63074;44.696;10.358;2022-11-15T02:01:25;100423.25;;;7.68;100.00
74524;BME280;63074;44.696;10.358;2022-11-15T02:03:59;100411.94;;;7.72;100.00
74524;BME280;63074;44.696;10.358;2022-11-15T02:06:26;100409.69;;;7.76;100.00
74524;BME280;63074;44.696;10.358;2022-11-15T02:08:52;100409.28;;;7.72;100.00
74524;BME280;63074;44.696;10.358;2022-11-15T02:11:20;100403.72;;;7.67;100.00
74524;BME280;63074;44.696;10.358;2022-11-15T02:13:46;100401.44;;;7.58;100.00
74524;BME280;63074;44.696;10.358;2022-11-15T02:16:53;100397.94;;;7.64;100.00
74524;BME280;63074;44.696;10.358;2022-11-15T02:27:57;100373.25;;;7.62;100.00
74524;BME280;63074;44.696;10.358;2022-11-15T02:31:02;100378.00;;;7.66;100.00
74524;BME280;63074;44.696;10.358;2022-11-15T02:36:22;100366.94;;;7.17;100.00
74524;BME280;63074;44.696;10.358;2022-11-15T02:41:57;100354.13;;;7.71;100.00
74524;BME280;63074;44.696;10.358;2022-11-15T02:44:37;100359.72;;;7.43;100.00
74524;BME280;63074;44.696;10.358;2022-11-15T02:47:07;100350.47;;;7.39;100.00
74524;BME280;63074;44.696;10.358;2022-11-15T02:49:41;100355.84;;;7.20;100.00
74524;BME280;63074;44.696;10.358;2022-11-15T02:52:07;100356.66;;;7.14;100.00
74524;BME280;63074;44.696;10.358;2022-11-15T02:54:34;100353.31;;;7.51;100.00
74524;BME280;63074;44.696;10.358;2022-11-15T02:57:07;100352.69;;;7.62;100.00
74524;BME280;63074;44.696;10.358;2022-11-15T03:00:01;100354.06;;;7.85;100.00
74524;BME280;63074;44.696;10.358;2022-11-15T03:13:21;100336.06;;;8.11;100.00
74524;BME280;63074;44.696;10.358;2022-11-15T03:15:57;100330.72;;;8.11;100.00
74524;BME280;63074;44.696;10.358;2022-11-15T03:18:34;100344.09;;;8.11;100.00
74524;BME280;63074;44.696;10.358;2022-11-15T03:21:04;100346.16;;;8.16;100.00
74524;BME280;63074;44.696;10.358;2022-11-15T03:23:33;100345.31;;;8.22;100.00
74524;BME280;63074;44.696;10.358;2022-11-15T03:26:01;100349.34;;;7.87;100.00
74524;BME280;63074;44.696;10.358;2022-11-15T03:28:36;100351.44;;;7.71;100.00
74524;BME280;63074;44.696;10.358;2022-11-15T03:31:05;100345.06;;;7.66;100.00
74524;BME280;63074;44.696;10.358;2022-11-15T03:33:53;100344.25;;;7.65;100.00
74524;BME280;63074;44.696;10.358;2022-11-15T03:36:22;100351.25;;;7.60;100.00
74524;BME280;63074;44.696;10.358;2022-11-15T03:38:53;100351.66;;;7.76;100.00
74524;BME280;63074;44.696;10.358;2022-11-15T03:42:04;100343.63;;;7.70;100.00
74524;BME280;63074;44.696;10.358;2022-11-15T03:47:09;100356.13;;;7.83;100.00
74524;BME280;63074;44.696;10.358;2022-11-15T03:49:36;100354.50;;;7.82;100.00
74524;BME280;63074;44.696;10.358;2022-11-15T03:52:04;100352.25;;;7.78;100.00
74524;BME280;63074;44.696;10.358;2022-11-15T03:54:31;100353.09;;;7.72;100.00
74524;BME280;63074;44.696;10.358;2022-11-15T03:57:00;100355.75;;;7.79;100.00
74524;BME280;63074;44.696;10.358;2022-11-15T03:59:26;100349.19;;;7.75;100.00
74524;BME280;63074;44.696;10.358;2022-11-15T04:01:53;100345.00;;;7.86;100.00
74524;BME280;63074;44.696;10.358;2022-11-15T04:04:19;100345.81;;;7.93;100.00
74524;BME280;63074;44.696;10.358;2022-11-15T04:06:45;100332.63;;;7.98;100.00
74524;BME280;63074;44.696;10.358;2022-11-15T04:09:11;100341.50;;;7.85;100.00
74524;BME280;63074;44.696;10.358;2022-11-15T04:11:37;100338.88;;;7.78;100.00
74524;BME280;63074;44.696;10.358;2022-11-15T04:14:03;100334.56;;;7.77;100.00
74524;BME280;63074;44.696;10.358;2022-11-15T04:16:29;100337.00;;;7.86;100.00
74524;BME280;63074;44.696;10.358;2022-11-15T04:18:56;100328.13;;;7.92;100.00
74524;BME280;63074;44.696;10.358;2022-11-15T04:21:40;100334.69;;;8.02;100.00
74524;BME280;63074;44.696;10.358;2022-11-15T04:24:25;100328.94;;;7.99;100.00
74524;BME280;63074;44.696;10.358;2022-11-15T04:26:51;100330.38;;;7.95;100.00
74524;BME280;63074;44.696;10.358;2022-11-15T04:29:17;100323.56;;;7.99;100.00
74524;BME280;63074;44.696;10.358;2022-11-15T04:32:03;100339.66;;;7.92;100.00
74524;BME280;63074;44.696;10.358;2022-11-15T04:34:30;100344.97;;;8.05;100.00
74524;BME280;63074;44.696;10.358;2022-11-15T04:36:56;100338.59;;;8.00;100.00
74524;BME280;63074;44.696;10.358;2022-11-15T04:39:41;100328.66;;;8.13;100.00
74524;BME280;63074;44.696;10.358;2022-11-15T04:42:08;100324.38;;;8.06;100.00
74524;BME280;63074;44.696;10.358;2022-11-15T04:44:34;100322.75;;;7.98;100.00
74524;BME280;63074;44.696;10.358;2022-11-15T04:47:01;100328.25;;;8.10;100.00
74524;BME280;63074;44.696;10.358;2022-11-15T04:49:27;100327.44;;;8.09;100.00
74524;BME280;63074;44.696;10.358;2022-11-15T04:51:54;100313.47;;;8.07;100.00
74524;BME280;63074;44.696;10.358;2022-11-15T04:54:20;100311.03;;;7.93;100.00
74524;BME280;63074;44.696;10.358;2022-11-15T04:56:46;100308.75;;;7.96;100.00
74524;BME280;63074;44.696;10.358;2022-11-15T04:59:12;100310.72;;;8.14;100.00
74524;BME280;63074;44.696;10.358;2022-11-15T05:01:38;100308.66;;;8.16;100.00
74524;BME280;63074;44.696;10.358;2022-11-15T05:04:04;100317.34;;;8.11;100.00
74524;BME280;63074;44.696;10.358;2022-11-15T05:06:50;100301.00;;;8.26;100.00
74524;BME280;63074;44.696;10.358;2022-11-15T05:09:21;100310.19;;;8.05;100.00
74524;BME280;63074;44.696;10.358;2022-11-15T05:11:47;100313.72;;;7.86;100.00
74524;BME280;63074;44.696;10.358;2022-11-15T05:14:14;100318.25;;;7.92;100.00
74524;BME280;63074;44.696;10.358;2022-11-15T05:16:40;100314.19;;;7.76;100.00
74524;BME280;63074;44.696;10.358;2022-11-15T05:19:07;100321.31;;;7.96;100.00
74524;BME280;63074;44.696;10.358;2022-11-15T05:21:33;100321.50;;;8.07;100.00
74524;BME280;63074;44.696;10.358;2022-11-15T05:24:00;100309.38;;;7.98;100.00
74524;BME280;63074;44.696;10.358;2022-11-15T05:26:26;100299.00;;;8.15;100.00
74524;BME280;63074;44.696;10.358;2022-11-15T05:28:58;100294.06;;;8.12;100.00
74524;BME280;63074;44.696;10.358;2022-11-15T05:31:25;100298.16;;;8.14;100.00
74524;BME280;63074;44.696;10.358;2022-11-15T05:33:52;100301.84;;;8.20;100.00
74524;BME280;63074;44.696;10.358;2022-11-15T05:38:49;100298.75;;;8.23;100.00
74524;BME280;63074;44.696;10.358;2022-11-15T05:41:18;100309.66;;;8.35;100.00
74524;BME280;63074;44.696;10.358;2022-11-15T05:43:46;100298.72;;;8.30;100.00
74524;BME280;63074;44.696;10.358;2022-11-15T05:46:14;100297.28;;;8.27;100.00
74524;BME280;63074;44.696;10.358;2022-11-15T05:48:44;100297.50;;;8.32;100.00
74524;BME280;63074;44.696;10.358;2022-11-15T05:51:13;100299.56;;;8.24;100.00
74524;BME280;63074;44.696;10.358;2022-11-15T05:53:41;100302.47;;;8.22;100.00
74524;BME280;63074;44.696;10.358;2022-11-15T05:56:07;100293.38;;;8.30;100.00
74524;BME280;63074;44.696;10.358;2022-11-15T05:58:35;100295.44;;;8.34;100.00
74524;BME280;63074;44.696;10.358;2022-11-15T06:01:02;100302.22;;;8.37;100.00
74524;BME280;63074;44.696;10.358;2022-11-15T06:03:28;100298.75;;;8.23;100.00
74524;BME280;63074;44.696;10.358;2022-11-15T06:05:55;100291.50;;;8.30;100.00
74524;BME280;63074;44.696;10.358;2022-11-15T06:08:21;100297.69;;;8.31;100.00
74524;BME280;63074;44.696;10.358;2022-11-15T06:10:48;100290.44;;;8.38;100.00
74524;BME280;63074;44.696;10.358;2022-11-15T06:13:17;100285.91;;;8.38;100.00
74524;BME280;63074;44.696;10.358;2022-11-15T06:15:46;100287.72;;;8.51;100.00
74524;BME280;63074;44.696;10.358;2022-11-15T06:18:12;100289.00;;;8.42;100.00
74524;BME280;63074;44.696;10.358;2022-11-15T06:20:38;100289.25;;;8.34;100.00
74524;BME280;63074;44.696;10.358;2022-11-15T06:23:05;100299.75;;;8.35;100.00
74524;BME280;63074;44.696;10.358;2022-11-15T06:25:32;100296.31;;;8.15;100.00
74524;BME280;63074;44.696;10.358;2022-11-15T06:27:59;100301.28;;;8.11;100.00
74524;BME280;63074;44.696;10.358;2022-11-15T06:30:26;100299.69;;;8.04;100.00
74524;BME280;63074;44.696;10.358;2022-11-15T06:33:02;100303.94;;;8.11;100.00
74524;BME280;63074;44.696;10.358;2022-11-15T06:35:30;100305.44;;;8.07;100.00
74524;BME280;63074;44.696;10.358;2022-11-15T06:37:59;100301.13;;;8.06;100.00
74524;BME280;63074;44.696;10.358;2022-11-15T06:40:27;100304.97;;;8.10;100.00
74524;BME280;63074;44.696;10.358;2022-11-15T06:42:58;100305.13;;;8.29;100.00
74524;BME280;63074;44.696;10.358;2022-11-15T06:45:25;100312.75;;;8.25;100.00
74524;BME280;63074;44.696;10.358;2022-11-15T06:47:51;100315.31;;;8.07;100.00
74524;BME280;63074;44.696;10.358;2022-11-15T06:50:18;100308.75;;;8.03;100.00
74524;BME280;63074;44.696;10.358;2022-11-15T06:52:44;100317.91;;;8.20;100.00
74524;BME280;63074;44.696;10.358;2022-11-15T06:55:10;100312.94;;;8.37;100.00
74524;BME280;63074;44.696;10.358;2022-11-15T06:57:36;100313.97;;;8.36;100.00
74524;BME280;63074;44.696;10.358;2022-11-15T07:00:06;100310.41;;;8.42;100.00
74524;BME280;63074;44.696;10.358;2022-11-15T07:02:32;100310.00;;;8.38;100.00
74524;BME280;63074;44.696;10.358;2022-11-15T07:04:58;100308.84;;;8.34;100.00
74524;BME280;63074;44.696;10.358;2022-11-15T07:07:25;100317.91;;;8.27;100.00
74524;BME280;63074;44.696;10.358;2022-11-15T07:09:51;100320.16;;;8.30;100.00
74524;BME280;63074;44.696;10.358;2022-11-15T07:12:17;100315.81;;;8.29;100.00
74524;BME280;63074;44.696;10.358;2022-11-15T07:14:43;100321.72;;;8.44;100.00
74524;BME280;63074;44.696;10.358;2022-11-15T07:17:09;100326.28;;;8.43;100.00
74524;BME280;63074;44.696;10.358;2022-11-15T07:19:35;100321.75;;;8.37;100.00
74524;BME280;63074;44.696;10.358;2022-11-15T07:22:01;100321.94;;;8.42;100.00
74524;BME280;63074;44.696;10.358;2022-11-15T07:24:28;100325.38;;;8.56;100.00
74524;BME280;63074;44.696;10.358;2022-11-15T07:26:54;100316.31;;;8.57;100.00
74524;BME280;63074;44.696;10.358;2022-11-15T07:29:20;100319.25;;;8.49;100.00
74524;BME280;63074;44.696;10.358;2022-11-15T07:31:46;100320.63;;;8.58;100.00
74524;BME280;63074;44.696;10.358;2022-11-15T07:34:12;100309.94;;;8.52;100.00
74524;BME280;63074;44.696;10.358;2022-11-15T07:36:38;100324.31;;;8.64;100.00
74524;BME280;63074;44.696;10.358;2022-11-15T07:39:05;100314.03;;;8.61;100.00
74524;BME280;63074;44.696;10.358;2022-11-15T07:41:31;100317.09;;;8.64;100.00
74524;BME280;63074;44.696;10.358;2022-11-15T07:43:57;100319.50;;;8.72;100.00
74524;BME280;63074;44.696;10.358;2022-11-15T07:46:23;100312.03;;;8.81;100.00
74524;BME280;63074;44.696;10.358;2022-11-15T07:48:49;100314.44;;;8.89;100.00
74524;BME280;63074;44.696;10.358;2022-11-15T07:51:16;100318.63;;;8.78;100.00
74524;BME280;63074;44.696;10.358;2022-11-15T07:53:43;100315.75;;;8.80;100.00
74524;BME280;63074;44.696;10.358;2022-11-15T07:56:10;100315.09;;;8.85;100.00
74524;BME280;63074;44.696;10.358;2022-11-15T07:58:39;100317.81;;;8.78;100.00
74524;BME280;63074;44.696;10.358;2022-11-15T08:01:07;100315.69;;;8.87;100.00
74524;BME280;63074;44.696;10.358;2022-11-15T08:03:34;100311.94;;;8.94;100.00
74524;BME280;63074;44.696;10.358;2022-11-15T08:06:01;100315.97;;;9.03;100.00
74524;BME280;63074;44.696;10.358;2022-11-15T08:08:27;100311.59;;;9.09;100.00
74524;BME280;63074;44.696;10.358;2022-11-15T08:10:54;100305.84;;;9.05;100.00
74524;BME280;63074;44.696;10.358;2022-11-15T08:13:20;100303.44;;;8.97;100.00
74524;BME280;63074;44.696;10.358;2022-11-15T08:15:47;100310.66;;;8.97;100.00
74524;BME280;63074;44.696;10.358;2022-11-15T08:18:15;100311.69;;;8.96;100.00
74524;BME280;63074;44.696;10.358;2022-11-15T08:20:42;100312.81;;;8.88;100.00
74524;BME280;63074;44.696;10.358;2022-11-15T08:23:11;100314.00;;;8.92;100.00
74524;BME280;63074;44.696;10.358;2022-11-15T08:25:38;100320.56;;;8.96;100.00
74524;BME280;63074;44.696;10.358;2022-11-15T08:28:06;100318.03;;;9.01;100.00
74524;BME280;63074;44.696;10.358;2022-11-15T08:30:39;100319.19;;;9.12;100.00
74524;BME280;63074;44.696;10.358;2022-11-15T08:33:11;100310.34;;;9.11;100.00
74524;BME280;63074;44.696;10.358;2022-11-15T08:35:38;100307.44;;;9.13;100.00
74524;BME280;63074;44.696;10.358;2022-11-15T08:38:05;100304.28;;;9.23;100.00
74524;BME280;63074;44.696;10.358;2022-11-15T08:40:31;100306.13;;;9.22;100.00
74524;BME280;63074;44.696;10.358;2022-11-15T08:42:57;100309.53;;;9.29;100.00
74524;BME280;63074;44.696;10.358;2022-11-15T08:45:24;100305.44;;;9.27;100.00
74524;BME280;63074;44.696;10.358;2022-11-15T08:47:50;100303.38;;;9.29;100.00
74524;BME280;63074;44.696;10.358;2022-11-15T08:50:17;100303.75;;;9.32;100.00
74524;BME280;63074;44.696;10.358;2022-11-15T08:52:43;100296.41;;;9.46;100.00
74524;BME280;63074;44.696;10.358;2022-11-15T08:55:09;100299.75;;;9.60;100.00
74524;BME280;63074;44.696;10.358;2022-11-15T08:57:35;100290.44;;;9.62;100.00
74524;BME280;63074;44.696;10.358;2022-11-15T09:00:02;100291.41;;;9.68;100.00
74524;BME280;63074;44.696;10.358;2022-11-15T09:02:28;100292.69;;;9.65;100.00
74524;BME280;63074;44.696;10.358;2022-11-15T09:04:55;100293.44;;;9.72;100.00
74524;BME280;63074;44.696;10.358;2022-11-15T09:07:21;100292.38;;;9.73;100.00
74524;BME280;63074;44.696;10.358;2022-11-15T09:09:47;100294.31;;;9.66;100.00
74524;BME280;63074;44.696;10.358;2022-11-15T09:12:13;100288.66;;;9.74;100.00
74524;BME280;63074;44.696;10.358;2022-11-15T09:14:39;100300.88;;;9.70;100.00
74524;BME280;63074;44.696;10.358;2022-11-15T09:17:08;100295.91;;;9.74;100.00
74524;BME280;63074;44.696;10.358;2022-11-15T09:19:35;100297.47;;;9.81;100.00
74524;BME280;63074;44.696;10.358;2022-11-15T09:22:01;100298.66;;;9.67;100.00
74524;BME280;63074;44.696;10.358;2022-11-15T09:24:27;100295.00;;;9.80;100.00
74524;BME280;63074;44.696;10.358;2022-11-15T09:26:53;100291.19;;;9.69;100.00
74524;BME280;63074;44.696;10.358;2022-11-15T09:29:19;100287.63;;;9.75;100.00
74524;BME280;63074;44.696;10.358;2022-11-15T09:31:46;100284.63;;;9.83;100.00
74524;BME280;63074;44.696;10.358;2022-11-15T09:34:12;100286.34;;;9.96;100.00
74524;BME280;63074;44.696;10.358;2022-11-15T09:36:39;100286.47;;;10.01;100.00
74524;BME280;63074;44.696;10.358;2022-11-15T09:39:05;100278.28;;;9.96;100.00
74524;BME280;63074;44.696;10.358;2022-11-15T09:47:10;100276.56;;;10.02;100.00
74524;BME280;63074;44.696;10.358;2022-11-15T09:49:42;100275.50;;;10.03;100.00
74524;BME280;63074;44.696;10.358;2022-11-15T09:52:10;100278.19;;;10.03;100.00
74524;BME280;63074;44.696;10.358;2022-11-15T09:54:38;100278.34;;;10.08;100.00
74524;BME280;63074;44.696;10.358;2022-11-15T09:57:17;100274.28;;;10.17;100.00
74524;BME280;63074;44.696;10.358;2022-11-15T10:05:38;100259.75;;;10.25;100.00
74524;BME280;63074;44.696;10.358;2022-11-15T10:10:48;100247.53;;;10.40;100.00
74524;BME280;63074;44.696;10.358;2022-11-15T10:13:30;100242.44;;;10.51;100.00
74524;BME280;63074;44.696;10.358;2022-11-15T10:18:41;100236.47;;;10.48;100.00
74524;BME280;63074;44.696;10.358;2022-11-15T10:21:19;100231.53;;;10.45;100.00
74524;BME280;63074;44.696;10.358;2022-11-15T10:23:45;100231.81;;;10.56;100.00
74524;BME280;63074;44.696;10.358;2022-11-15T10:26:15;100229.31;;;10.31;100.00
74524;BME280;63074;44.696;10.358;2022-11-15T10:28:42;100222.81;;;10.50;100.00
74524;BME280;63074;44.696;10.358;2022-11-15T10:31:26;100208.78;;;10.36;100.00
74524;BME280;63074;44.696;10.358;2022-11-15T10:34:18;100211.94;;;10.57;100.00
74524;BME280;63074;44.696;10.358;2022-11-15T10:36:58;100207.16;;;10.59;100.00
74524;BME280;63074;44.696;10.358;2022-11-15T10:39:26;100198.28;;;10.58;100.00
74524;BME280;63074;44.696;10.358;2022-11-15T10:41:53;100183.34;;;10.74;100.00
74524;BME280;63074;44.696;10.358;2022-11-15T10:44:21;100183.56;;;10.72;100.00
74524;BME280;63074;44.696;10.358;2022-11-15T10:49:31;100187.38;;;10.41;100.00
74524;BME280;63074;44.696;10.358;2022-11-15T10:52:32;100187.53;;;10.16;100.00
74524;BME280;63074;44.696;10.358;2022-11-15T10:55:05;100178.91;;;9.85;100.00
74524;BME280;63074;44.696;10.358;2022-11-15T10:57:37;100188.28;;;9.94;100.00
74524;BME280;63074;44.696;10.358;2022-11-15T11:00:28;100188.47;;;9.80;100.00
74524;BME280;63074;44.696;10.358;2022-11-15T11:05:41;100177.91;;;10.27;100.00
74524;BME280;63074;44.696;10.358;2022-11-15T11:10:57;100164.63;;;10.14;100.00
74524;BME280;63074;44.696;10.358;2022-11-15T11:13:24;100159.44;;;10.19;100.00
74524;BME280;63074;44.696;10.358;2022-11-15T11:21:55;100148.50;;;10.56;100.00
74524;BME280;63074;44.696;10.358;2022-11-15T11:33:48;100137.41;;;9.99;100.00
74524;BME280;63074;44.696;10.358;2022-11-15T11:38:42;100134.13;;;10.27;100.00
74524;BME280;63074;44.696;10.358;2022-11-15T11:41:33;100125.81;;;10.40;100.00
74524;BME280;63074;44.696;10.358;2022-11-15T11:49:37;100129.75;;;9.84;100.00
74524;BME280;63074;44.696;10.358;2022-11-15T11:52:13;100133.25;;;9.73;100.00
74524;BME280;63074;44.696;10.358;2022-11-15T11:54:49;100119.13;;;10.07;100.00
74524;BME280;63074;44.696;10.358;2022-11-15T12:00:20;100115.72;;;9.70;100.00
74524;BME280;63074;44.696;10.358;2022-11-15T12:05:56;100126.59;;;9.75;100.00
74524;BME280;63074;44.696;10.358;2022-11-15T12:11:41;100117.53;;;9.88;100.00
74524;BME280;63074;44.696;10.358;2022-11-15T12:14:25;100117.53;;;9.58;100.00
74524;BME280;63074;44.696;10.358;2022-11-15T12:16:52;100106.94;;;9.63;100.00
74524;BME280;63074;44.696;10.358;2022-11-15T12:19:18;100115.53;;;9.83;100.00
74524;BME280;63074;44.696;10.358;2022-11-15T12:22:02;100101.78;;;9.80;100.00
74524;BME280;63074;44.696;10.358;2022-11-15T12:24:38;100097.72;;;10.01;100.00
74524;BME280;63074;44.696;10.358;2022-11-15T12:30:03;100077.94;;;9.72;100.00
74524;BME280;63074;44.696;10.358;2022-11-15T12:32:33;100081.13;;;9.92;100.00
74524;BME280;63074;44.696;10.358;2022-11-15T12:35:03;100076.47;;;9.99;100.00
74524;BME280;63074;44.696;10.358;2022-11-15T12:42:41;100059.38;;;9.70;100.00
74524;BME280;63074;44.696;10.358;2022-11-15T12:45:33;100052.66;;;9.79;100.00
74524;BME280;63074;44.696;10.358;2022-11-15T12:51:01;100057.75;;;9.69;100.00
74524;BME280;63074;44.696;10.358;2022-11-15T12:53:30;100047.28;;;9.79;100.00
74524;BME280;63074;44.696;10.358;2022-11-15T12:56:17;100043.69;;;9.97;100.00
74524;BME280;63074;44.696;10.358;2022-11-15T12:58:55;100048.41;;;9.72;100.00
74524;BME280;63074;44.696;10.358;2022-11-15T13:12:01;100045.78;;;9.95;100.00
74524;BME280;63074;44.696;10.358;2022-11-15T13:22:24;100016.75;;;9.51;100.00
74524;BME280;63074;44.696;10.358;2022-11-15T13:27:47;100013.50;;;9.48;100.00
74524;BME280;63074;44.696;10.358;2022-11-15T13:30:21;100011.41;;;9.51;100.00
74524;BME280;63074;44.696;10.358;2022-11-15T13:32:47;100010.16;;;9.35;100.00
74524;BME280;63074;44.696;10.358;2022-11-15T13:35:41;100010.22;;;9.46;100.00
74524;BME280;63074;44.696;10.358;2022-11-15T13:40:50;100008.63;;;9.69;100.00
74524;BME280;63074;44.696;10.358;2022-11-15T13:46:22;100006.63;;;9.64;100.00
74524;BME280;63074;44.696;10.358;2022-11-15T13:56:53;99999.72;;;9.57;100.00
74524;BME280;63074;44.696;10.358;2022-11-15T13:59:34;100002.41;;;9.57;100.00
74524;BME280;63074;44.696;10.358;2022-11-15T14:02:32;99996.72;;;9.65;100.00
74524;BME280;63074;44.696;10.358;2022-11-15T14:05:20;99997.63;;;9.59;100.00
74524;BME280;63074;44.696;10.358;2022-11-15T14:08:00;99990.78;;;9.21;100.00
74524;BME280;63074;44.696;10.358;2022-11-15T14:10:32;100005.94;;;9.27;100.00
74524;BME280;63074;44.696;10.358;2022-11-15T14:12:59;100003.69;;;9.24;100.00
74524;BME280;63074;44.696;10.358;2022-11-15T14:15:28;100004.03;;;9.46;100.00
74524;BME280;63074;44.696;10.358;2022-11-15T14:17:55;99994.97;;;9.29;100.00
74524;BME280;63074;44.696;10.358;2022-11-15T14:20:29;99985.34;;;9.39;100.00
74524;BME280;63074;44.696;10.358;2022-11-15T14:23:26;99988.19;;;9.56;100.00
74524;BME280;63074;44.696;10.358;2022-11-15T14:25:55;99993.34;;;9.28;100.00
74524;BME280;63074;44.696;10.358;2022-11-15T14:30:55;99988.69;;;9.23;100.00
74524;BME280;63074;44.696;10.358;2022-11-15T14:35:51;99973.50;;;9.17;100.00
74524;BME280;63074;44.696;10.358;2022-11-15T14:38:18;99979.78;;;9.11;100.00
74524;BME280;63074;44.696;10.358;2022-11-15T14:40:44;99983.56;;;9.22;100.00
74524;BME280;63074;44.696;10.358;2022-11-15T14:43:11;99980.97;;;9.27;100.00
74524;BME280;63074;44.696;10.358;2022-11-15T14:45:38;99978.13;;;9.10;100.00
74524;BME280;63074;44.696;10.358;2022-11-15T14:48:05;99968.50;;;9.21;100.00
74524;BME280;63074;44.696;10.358;2022-11-15T14:50:32;99966.97;;;9.13;100.00
74524;BME280;63074;44.696;10.358;2022-11-15T14:52:59;99974.53;;;9.46;100.00
74524;BME280;63074;44.696;10.358;2022-11-15T14:55:31;99969.84;;;9.53;100.00
74524;BME280;63074;44.696;10.358;2022-11-15T14:58:01;99962.34;;;9.32;100.00
74524;BME280;63074;44.696;10.358;2022-11-15T15:00:30;99958.25;;;9.18;100.00
74524;BME280;63074;44.696;10.358;2022-11-15T15:02:56;99965.78;;;9.51;100.00
74524;BME280;63074;44.696;10.358;2022-11-15T15:05:32;99958.69;;;9.68;100.00
74524;BME280;63074;44.696;10.358;2022-11-15T15:07:59;99956.81;;;9.45;100.00
74524;BME280;63074;44.696;10.358;2022-11-15T15:10:29;99944.03;;;9.29;100.00
74524;BME280;63074;44.696;10.358;2022-11-15T15:12:56;99945.66;;;9.30;100.00